createdAt,value
2023-03-19T00:00:21.432Z,8.91
2023-03-19T00:02:23.768Z,8.88
2023-03-19T00:04:27.503Z,8.85
2023-03-19T00:06:28.928Z,8.79
2023-03-19T00:08:30.436Z,8.76
2023-03-19T00:10:32.005Z,8.73
2023-03-19T00:12:36.677Z,8.70
2023-03-19T00:14:38.634Z,8.68
2023-03-19T00:16:40.317Z,8.65
2023-03-19T00:18:41.892Z,8.63
2023-03-19T00:20:45.844Z,8.60
2023-03-19T00:22:47.623Z,8.57
2023-03-19T00:24:49.224Z,8.53
2023-03-19T00:26:51.327Z,8.50
2023-03-19T00:28:54.388Z,8.48
2023-03-19T00:30:56.427Z,8.46
2023-03-19T00:32:57.988Z,8.43
2023-03-19T00:34:59.524Z,8.40
2023-03-19T00:37:01.324Z,8.38
2023-03-19T00:39:05.724Z,8.35
2023-03-19T00:41:07.638Z,8.33
2023-03-19T00:43:09.524Z,8.31
2023-03-19T00:45:12.909Z,8.28
2023-03-19T00:47:14.766Z,8.23
2023-03-19T00:49:16.236Z,8.20
2023-03-19T00:51:17.792Z,8.17
2023-03-19T00:53:21.811Z,8.14
2023-03-19T00:55:24.411Z,8.10
2023-03-19T00:57:27.088Z,8.07
2023-03-19T00:59:29.098Z,8.05
2023-03-19T01:01:30.681Z,8.03
2023-03-19T01:03:33.399Z,8.00
2023-03-19T01:05:36.200Z,7.99
2023-03-19T01:07:40.306Z,7.96
2023-03-19T01:09:41.897Z,7.95
2023-03-19T01:11:43.357Z,7.93
2023-03-19T01:13:45.709Z,7.91
2023-03-19T01:15:47.168Z,7.87
2023-03-19T01:17:48.612Z,7.84
2023-03-19T01:19:50.077Z,7.83
2023-03-19T01:21:51.625Z,7.81
2023-03-19T01:23:53.272Z,7.79
2023-03-19T01:25:54.794Z,7.77
2023-03-19T01:27:56.364Z,7.77
2023-03-19T01:29:57.808Z,7.75
2023-03-19T01:31:59.277Z,7.71
2023-03-19T01:34:01.734Z,7.72
2023-03-19T01:36:04.867Z,7.73
2023-03-19T01:38:06.394Z,7.75
2023-03-19T01:40:13.189Z,7.77
2023-03-19T01:42:15.002Z,7.77
2023-03-19T01:44:27.709Z,7.79
2023-03-19T01:46:29.176Z,7.80
2023-03-19T01:48:43.595Z,7.83
2023-03-19T01:50:46.178Z,7.84
2023-03-19T01:52:47.740Z,7.84
2023-03-19T01:54:49.402Z,7.86
2023-03-19T01:57:00.258Z,7.87
2023-03-19T01:59:11.036Z,7.86
2023-03-19T02:01:14.210Z,7.85
2023-03-19T02:03:16.373Z,7.85
2023-03-19T02:05:25.560Z,7.84
2023-03-19T02:07:30.906Z,7.85
2023-03-19T02:09:32.746Z,7.84
2023-03-19T02:11:34.250Z,7.85
2023-03-19T02:13:36.591Z,7.84
2023-03-19T02:15:38.358Z,7.83
2023-03-19T02:17:41.630Z,7.84
2023-03-19T02:20:01.947Z,7.83
2023-03-19T02:22:05.019Z,7.81
2023-03-19T02:24:17.378Z,7.82
2023-03-19T02:26:21.668Z,7.83
2023-03-19T02:28:24.279Z,7.84
2023-03-19T02:30:27.930Z,7.86
2023-03-19T02:32:29.392Z,7.88
2023-03-19T02:34:34.969Z,7.90
2023-03-19T02:36:44.488Z,7.90
2023-03-19T02:38:46.830Z,7.90
2023-03-19T02:40:54.092Z,7.91
2023-03-19T02:42:55.543Z,7.91
2023-03-19T02:44:57.820Z,7.91
2023-03-19T02:46:59.673Z,7.91
2023-03-19T02:49:01.614Z,7.91
2023-03-19T02:51:03.894Z,7.92
2023-03-19T02:53:05.653Z,7.92
2023-03-19T02:55:07.963Z,7.94
2023-03-19T02:57:09.485Z,7.94
2023-03-19T02:59:10.966Z,7.94
2023-03-19T03:01:12.498Z,7.95
2023-03-19T03:03:14.152Z,7.94
2023-03-19T03:05:15.590Z,7.93
2023-03-19T03:07:17.285Z,7.93
2023-03-19T03:09:19.630Z,7.92
2023-03-19T03:11:21.077Z,7.92
2023-03-19T03:13:22.618Z,7.91
2023-03-19T03:15:24.470Z,7.90
2023-03-19T03:17:25.949Z,7.90
2023-03-19T03:19:27.766Z,7.91
2023-03-19T03:21:29.592Z,7.92
2023-03-19T03:23:31.117Z,7.92
2023-03-19T03:25:32.620Z,7.94
2023-03-19T03:27:34.116Z,7.93
2023-03-19T03:29:35.587Z,7.94
2023-03-19T03:31:37.352Z,7.94
2023-03-19T03:33:39.180Z,7.95
2023-03-19T03:35:40.719Z,7.94
2023-03-19T03:37:42.288Z,7.94
2023-03-19T03:39:43.813Z,7.95
2023-03-19T03:41:45.800Z,7.94
2023-03-19T03:43:47.816Z,7.95
2023-03-19T03:45:49.800Z,7.94
2023-03-19T03:47:51.342Z,7.94
2023-03-19T03:49:52.853Z,7.94
2023-03-19T03:51:54.341Z,7.94
2023-03-19T03:53:55.823Z,7.95
2023-03-19T03:55:57.400Z,7.95
2023-03-19T03:57:59.130Z,7.96
2023-03-19T04:00:00.712Z,7.95
2023-03-19T04:02:02.325Z,7.96
2023-03-19T04:04:03.849Z,7.96
2023-03-19T04:06:06.075Z,7.96
2023-03-19T04:08:08.671Z,7.97
2023-03-19T04:10:11.922Z,7.98
2023-03-19T04:12:14.061Z,7.98
2023-03-19T04:14:15.552Z,7.98
2023-03-19T04:16:17.068Z,7.99
2023-03-19T04:18:18.604Z,8.00
2023-03-19T04:20:20.144Z,7.99
2023-03-19T04:22:21.611Z,8.00
2023-03-19T04:24:23.254Z,8.01
2023-03-19T04:26:24.729Z,8.02
2023-03-19T04:28:26.447Z,8.04
2023-03-19T04:30:28.164Z,8.03
2023-03-19T04:32:29.704Z,8.04
2023-03-19T04:34:31.846Z,8.05
2023-03-19T04:36:33.320Z,8.05
2023-03-19T04:38:34.806Z,8.06
2023-03-19T04:40:36.618Z,8.07
2023-03-19T04:42:38.137Z,8.08
2023-03-19T04:44:39.612Z,8.08
2023-03-19T04:46:41.877Z,8.10
2023-03-19T04:48:43.448Z,8.11
2023-03-19T04:50:47.107Z,8.11
2023-03-19T04:52:49.672Z,8.12
2023-03-19T04:54:51.136Z,8.14
2023-03-19T04:56:53.238Z,8.14
2023-03-19T04:58:54.779Z,8.14
2023-03-19T05:00:56.257Z,8.16
2023-03-19T05:02:57.999Z,8.17
2023-03-19T05:04:59.448Z,8.17
2023-03-19T05:07:00.982Z,8.18
2023-03-19T05:09:03.887Z,8.19
2023-03-19T05:11:05.535Z,8.20
2023-03-19T05:13:07.245Z,8.21
2023-03-19T05:15:09.502Z,8.22
2023-03-19T05:17:11.348Z,8.22
2023-03-19T05:19:13.044Z,8.22
2023-03-19T05:21:14.880Z,8.21
2023-03-19T05:23:17.855Z,8.22
2023-03-19T05:25:19.532Z,8.20
2023-03-19T05:27:21.117Z,8.20
2023-03-19T05:29:23.289Z,8.20
2023-03-19T05:31:24.918Z,8.20
2023-03-19T05:33:26.844Z,8.17
2023-03-19T05:35:29.783Z,8.16
2023-03-19T05:37:31.844Z,8.13
2023-03-19T05:39:33.528Z,8.12
2023-03-19T05:41:35.064Z,8.08
2023-03-19T05:43:37.137Z,8.07
2023-03-19T05:45:38.990Z,8.07
2023-03-19T05:47:40.576Z,8.07
2023-03-19T05:49:42.020Z,8.05
2023-03-19T05:51:43.508Z,8.03
2023-03-19T05:53:46.012Z,8.02
2023-03-19T05:55:47.465Z,8.01
2023-03-19T05:57:49.029Z,7.98
2023-03-19T05:59:51.091Z,7.96
2023-03-19T06:01:52.622Z,7.95
2023-03-19T06:03:54.163Z,7.95
2023-03-19T06:05:55.830Z,7.94
2023-03-19T06:07:57.284Z,7.94
2023-03-19T06:09:58.733Z,7.96
2023-03-19T06:12:00.439Z,7.99
2023-03-19T06:14:01.915Z,8.01
2023-03-19T06:16:03.573Z,8.04
2023-03-19T06:18:05.235Z,8.08
2023-03-19T06:20:07.185Z,8.11
2023-03-19T06:22:08.991Z,8.18
2023-03-19T06:24:10.542Z,8.23
2023-03-19T06:26:12.387Z,8.29
2023-03-19T06:28:13.995Z,8.33
2023-03-19T06:30:15.774Z,8.38
2023-03-19T06:32:17.297Z,8.42
2023-03-19T06:34:18.993Z,8.47
2023-03-19T06:36:20.515Z,8.52
2023-03-19T06:38:22.483Z,8.60
2023-03-19T06:40:24.495Z,8.66
2023-03-19T06:42:26.118Z,8.70
2023-03-19T06:44:27.691Z,8.73
2023-03-19T06:46:29.303Z,8.78
2023-03-19T06:48:31.184Z,8.82
2023-03-19T06:50:32.918Z,8.86
2023-03-19T06:52:34.517Z,8.91
2023-03-19T06:54:38.358Z,8.95
2023-03-19T06:56:40.628Z,9.00
2023-03-19T06:58:42.156Z,9.03
2023-03-19T07:00:44.128Z,9.04
2023-03-19T07:02:45.641Z,9.07
2023-03-19T07:04:47.118Z,9.10
2023-03-19T07:06:48.642Z,9.12
2023-03-19T07:08:50.131Z,9.15
2023-03-19T07:10:51.668Z,9.20
2023-03-19T07:12:53.216Z,9.23
2023-03-19T07:14:58.497Z,9.27
2023-03-19T07:16:59.970Z,9.29
2023-03-19T07:19:01.441Z,9.31
2023-03-19T07:21:03.454Z,9.33
2023-03-19T07:23:04.906Z,9.35
2023-03-19T07:25:07.267Z,9.36
2023-03-19T07:27:08.829Z,9.38
2023-03-19T07:29:11.175Z,9.40
2023-03-19T07:31:13.612Z,9.44
2023-03-19T07:33:15.080Z,9.46
2023-03-19T07:35:16.868Z,9.50
2023-03-19T07:37:20.171Z,9.54
2023-03-19T07:39:23.416Z,9.58
2023-03-19T07:41:24.873Z,9.64
2023-03-19T07:43:26.458Z,9.71
2023-03-19T07:45:27.937Z,9.80
2023-03-19T07:47:29.836Z,9.89
2023-03-19T07:49:31.491Z,9.98
2023-03-19T07:51:33.468Z,10.05
2023-03-19T07:53:34.948Z,10.13
2023-03-19T07:55:38.431Z,10.20
2023-03-19T07:57:40.426Z,10.26
2023-03-19T07:59:42.201Z,10.30
2023-03-19T08:01:43.859Z,10.33
2023-03-19T08:03:45.391Z,10.37
2023-03-19T08:05:50.441Z,10.43
2023-03-19T08:07:52.358Z,10.49
2023-03-19T08:09:53.900Z,10.55
2023-03-19T08:11:55.806Z,10.62
2023-03-19T08:13:57.286Z,10.72
2023-03-19T08:15:58.801Z,10.79
2023-03-19T08:18:01.755Z,10.88
2023-03-19T08:20:04.339Z,10.93
2023-03-19T08:22:05.966Z,10.97
2023-03-19T08:24:07.434Z,11.04
2023-03-19T08:26:08.915Z,11.14
2023-03-19T08:28:10.536Z,11.21
2023-03-19T08:30:12.653Z,11.24
2023-03-19T08:32:14.226Z,11.27
2023-03-19T08:34:15.740Z,11.33
2023-03-19T08:36:17.301Z,11.37
2023-03-19T08:38:20.003Z,11.43
2023-03-19T08:40:22.122Z,11.48
2023-03-19T08:42:23.867Z,11.55
2023-03-19T08:44:25.362Z,11.60
2023-03-19T08:46:27.768Z,11.64
2023-03-19T08:48:29.485Z,11.66
2023-03-19T08:50:30.991Z,11.69
2023-03-19T08:52:32.938Z,11.70
2023-03-19T08:54:34.630Z,11.72
2023-03-19T08:56:36.066Z,11.76
2023-03-19T08:58:37.640Z,11.84
2023-03-19T09:00:39.086Z,11.89
2023-03-19T09:02:40.764Z,11.97
2023-03-19T09:04:43.325Z,12.07
2023-03-19T09:06:45.224Z,12.16
2023-03-19T09:08:46.784Z,12.26
2023-03-19T09:10:49.855Z,12.40
2023-03-19T09:12:52.862Z,12.53
2023-03-19T09:14:54.316Z,12.66
2023-03-19T09:16:55.854Z,12.77
2023-03-19T09:18:59.329Z,12.90
2023-03-19T09:21:01.663Z,13.00
2023-03-19T09:23:03.492Z,13.13
2023-03-19T09:25:05.434Z,13.22
2023-03-19T09:27:06.906Z,13.34
2023-03-19T09:29:09.086Z,13.37
2023-03-19T09:31:11.572Z,13.46
2023-03-19T09:33:13.281Z,13.53
2023-03-19T09:35:14.907Z,13.61
2023-03-19T09:37:16.560Z,13.67
2023-03-19T09:39:18.067Z,13.70
2023-03-19T09:41:32.473Z,13.78
2023-03-19T09:44:00.642Z,13.82
2023-03-19T09:46:06.531Z,13.86
2023-03-19T09:48:16.921Z,13.90
2023-03-19T09:50:21.313Z,13.92
2023-03-19T09:52:47.130Z,13.99
2023-03-19T09:54:52.815Z,14.08
2023-03-19T09:56:55.477Z,14.17
2023-03-19T09:58:57.004Z,14.18
2023-03-19T10:01:00.972Z,14.24
2023-03-19T10:03:34.838Z,14.23
2023-03-19T10:05:53.353Z,14.21
2023-03-19T10:07:57.801Z,14.31
2023-03-19T10:10:08.327Z,14.40
2023-03-19T10:12:09.773Z,14.43
2023-03-19T10:14:36.126Z,14.51
2023-03-19T10:16:41.167Z,14.70
2023-03-19T10:18:48.373Z,14.80
2023-03-19T10:20:56.737Z,14.86
2023-03-19T10:23:37.517Z,14.95
2023-03-19T10:25:41.627Z,15.03
2023-03-19T10:27:46.624Z,15.14
2023-03-19T10:29:48.439Z,15.19
2023-03-19T10:32:18.655Z,15.25
2023-03-19T10:34:29.502Z,15.32
2023-03-19T10:36:35.701Z,15.37
2023-03-19T10:38:44.712Z,15.39
2023-03-19T10:41:01.877Z,15.36
2023-03-19T10:43:24.744Z,15.27
2023-03-19T10:45:31.902Z,15.21
2023-03-19T10:47:39.487Z,15.14
2023-03-19T10:49:42.066Z,15.11
2023-03-19T10:51:46.258Z,15.05
2023-03-19T10:53:47.876Z,14.92
2023-03-19T10:56:00.216Z,14.82
2023-03-19T10:58:05.751Z,14.76
2023-03-19T11:00:15.510Z,14.71
2023-03-19T11:02:20.719Z,14.62
2023-03-19T11:04:23.537Z,14.53
2023-03-19T11:06:35.449Z,14.50
2023-03-19T11:08:38.027Z,14.48
2023-03-19T11:10:46.584Z,14.47
2023-03-19T11:12:54.694Z,14.44
2023-03-19T11:14:59.980Z,14.39
2023-03-19T11:17:36.719Z,14.33
2023-03-19T11:19:42.646Z,14.31
2023-03-19T11:21:59.002Z,14.27
2023-03-19T11:24:03.527Z,14.26
2023-03-19T11:26:05.173Z,14.29
2023-03-19T11:28:15.648Z,14.30
2023-03-19T11:30:19.561Z,14.29
2023-03-19T11:32:33.692Z,14.25
2023-03-19T11:34:54.093Z,14.25
2023-03-19T11:37:01.790Z,14.26
2023-03-19T11:39:12.340Z,14.23
2023-03-19T11:41:24.798Z,14.21
2023-03-19T11:43:48.950Z,14.13
2023-03-19T11:45:59.494Z,14.10
2023-03-19T11:48:31.569Z,14.06
2023-03-19T11:50:50.022Z,14.06
2023-03-19T11:53:14.633Z,14.05
2023-03-19T11:55:39.202Z,14.03
2023-03-19T11:58:18.636Z,13.97
2023-03-19T12:00:31.359Z,13.92
2023-03-19T12:03:00.517Z,13.80
2023-03-19T12:05:21.085Z,13.72
2023-03-19T12:07:32.811Z,13.65
2023-03-19T12:10:25.424Z,13.39
2023-03-19T12:12:39.484Z,13.21
2023-03-19T12:14:59.433Z,13.16
2023-03-19T12:17:07.259Z,13.11
2023-03-19T12:19:36.590Z,13.09
2023-03-19T12:22:22.415Z,13.09
2023-03-19T12:24:48.719Z,13.16
2023-03-19T12:27:36.511Z,13.27
2023-03-19T12:29:59.662Z,13.37
2023-03-19T12:32:16.641Z,13.55
2023-03-19T12:34:27.139Z,13.82
2023-03-19T12:36:33.900Z,14.09
2023-03-19T12:38:45.326Z,14.21
2023-03-19T12:40:49.375Z,14.20
2023-03-19T12:42:51.945Z,14.22
2023-03-19T12:44:57.078Z,14.32
2023-03-19T12:47:09.694Z,14.41
2023-03-19T12:49:17.756Z,14.44
2023-03-19T12:51:23.079Z,14.36
2023-03-19T12:53:54.241Z,14.30
2023-03-19T12:56:01.188Z,14.38
2023-03-19T12:58:14.664Z,14.55
2023-03-19T13:00:25.246Z,14.63
2023-03-19T13:02:59.034Z,14.86
2023-03-19T13:05:14.711Z,15.00
2023-03-19T13:07:36.134Z,14.95
2023-03-19T13:10:00.746Z,14.88
2023-03-19T13:12:10.694Z,14.88
2023-03-19T13:14:26.752Z,14.96
2023-03-19T13:16:45.350Z,15.05
2023-03-19T13:18:58.115Z,15.14
2023-03-19T13:21:32.407Z,15.34
2023-03-19T13:23:38.410Z,15.53
2023-03-19T13:25:48.171Z,15.63
2023-03-19T13:27:54.644Z,15.67
2023-03-19T13:30:12.189Z,15.69
2023-03-19T13:32:35.839Z,16.12
2023-03-19T13:34:38.344Z,16.54
2023-03-19T13:36:40.890Z,16.99
2023-03-19T13:38:50.628Z,17.22
2023-03-19T13:40:53.172Z,17.09
2023-03-19T13:42:57.619Z,17.07
2023-03-19T13:45:38.233Z,17.11
2023-03-19T13:47:43.294Z,17.01
2023-03-19T13:50:08.785Z,16.93
2023-03-19T13:52:10.479Z,16.88
2023-03-19T13:54:12.666Z,16.92
2023-03-19T13:56:29.066Z,17.01
2023-03-19T13:58:54.063Z,16.81
2023-03-19T14:00:59.614Z,16.48
2023-03-19T14:03:01.681Z,16.28
2023-03-19T14:05:19.038Z,16.19
2023-03-19T14:07:30.344Z,16.26
2023-03-19T14:09:38.876Z,16.44
2023-03-19T14:11:40.390Z,16.40
2023-03-19T14:13:47.591Z,16.19
2023-03-19T14:15:51.238Z,15.99
2023-03-19T14:18:02.378Z,15.80
2023-03-19T14:20:13.195Z,15.67
2023-03-19T14:22:42.634Z,15.57
2023-03-19T14:24:58.033Z,15.70
2023-03-19T14:27:12.118Z,16.00
2023-03-19T14:29:16.963Z,16.24
2023-03-19T14:31:23.714Z,16.41
2023-03-19T14:33:29.484Z,16.50
2023-03-19T14:35:36.619Z,16.59
2023-03-19T14:37:38.044Z,16.62
2023-03-19T14:39:44.031Z,16.60
2023-03-19T14:41:50.931Z,16.64
2023-03-19T14:44:16.296Z,16.51
2023-03-19T14:46:40.775Z,16.30
2023-03-19T14:49:13.054Z,16.45
2023-03-19T14:51:26.443Z,16.84
2023-03-19T14:53:37.916Z,17.05
2023-03-19T14:55:39.433Z,17.05
2023-03-19T14:57:42.072Z,16.94
2023-03-19T14:59:43.664Z,16.86
2023-03-19T15:01:50.520Z,16.76
2023-03-19T15:03:56.439Z,16.76
2023-03-19T15:06:01.369Z,16.80
2023-03-19T15:08:05.850Z,16.87
2023-03-19T15:10:18.932Z,16.88
2023-03-19T15:12:20.329Z,16.83
2023-03-19T15:14:34.474Z,16.57
2023-03-19T15:17:06.037Z,16.21
2023-03-19T15:19:11.438Z,15.93
2023-03-19T15:21:13.092Z,15.89
2023-03-19T15:23:26.787Z,16.06
2023-03-19T15:25:29.130Z,16.24
2023-03-19T15:27:30.794Z,16.24
2023-03-19T15:29:33.410Z,16.02
2023-03-19T15:31:51.590Z,15.82
2023-03-19T15:33:55.305Z,15.62
2023-03-19T15:36:02.784Z,15.59
2023-03-19T15:38:10.974Z,15.50
2023-03-19T15:40:16.175Z,15.41
2023-03-19T15:42:21.610Z,15.49
2023-03-19T15:44:32.730Z,15.77
2023-03-19T15:46:38.867Z,15.95
2023-03-19T15:49:11.267Z,16.09
2023-03-19T15:51:14.912Z,16.19
2023-03-19T15:53:22.596Z,16.25
2023-03-19T15:55:26.645Z,16.28
2023-03-19T15:57:28.663Z,16.25
2023-03-19T15:59:31.651Z,16.19
2023-03-19T16:01:34.367Z,16.15
2023-03-19T16:03:42.143Z,16.13
2023-03-19T16:05:43.840Z,16.12
2023-03-19T16:07:50.809Z,16.22
2023-03-19T16:09:52.789Z,16.23
2023-03-19T16:11:55.076Z,16.28
2023-03-19T16:13:58.742Z,16.24
2023-03-19T16:16:05.128Z,16.17
2023-03-19T16:18:22.285Z,16.13
2023-03-19T16:20:23.849Z,16.07
2023-03-19T16:22:30.721Z,16.06
2023-03-19T16:24:37.462Z,16.02
2023-03-19T16:26:44.422Z,15.98
2023-03-19T16:29:25.488Z,15.94
2023-03-19T16:31:32.017Z,15.95
2023-03-19T16:33:33.735Z,15.89
2023-03-19T16:35:36.721Z,15.92
2023-03-19T16:37:41.193Z,15.87
2023-03-19T16:39:55.148Z,15.75
2023-03-19T16:42:08.859Z,15.65
2023-03-19T16:44:31.386Z,15.49
2023-03-19T16:46:33.189Z,15.32
2023-03-19T16:48:34.726Z,15.21
2023-03-19T16:50:38.787Z,15.09
2023-03-19T16:52:41.290Z,15.12
2023-03-19T16:54:43.743Z,14.94
2023-03-19T16:56:45.320Z,14.84
2023-03-19T16:58:48.197Z,14.73
2023-03-19T17:00:49.716Z,14.63
2023-03-19T17:02:52.722Z,14.56
2023-03-19T17:04:54.267Z,14.46
2023-03-19T17:06:56.046Z,14.37
2023-03-19T17:08:57.539Z,14.29
2023-03-19T17:10:59.022Z,14.19
2023-03-19T17:13:00.873Z,14.13
2023-03-19T17:15:02.421Z,14.15
2023-03-19T17:17:03.891Z,14.10
2023-03-19T17:19:16.110Z,14.07
2023-03-19T17:21:23.095Z,14.07
2023-03-19T17:23:27.008Z,14.03
2023-03-19T17:25:28.712Z,13.98
2023-03-19T17:27:32.452Z,13.92
2023-03-19T17:29:35.733Z,13.90
2023-03-19T17:31:37.330Z,13.93
2023-03-19T17:33:38.820Z,13.90
2023-03-19T17:35:40.420Z,13.87
2023-03-19T17:37:42.209Z,13.82
2023-03-19T17:39:45.704Z,13.74
2023-03-19T17:41:47.188Z,13.66
2023-03-19T17:43:48.726Z,13.61
2023-03-19T17:45:50.574Z,13.52
2023-03-19T17:47:56.285Z,13.44
2023-03-19T17:49:57.904Z,13.33
2023-03-19T17:52:00.397Z,13.25
2023-03-19T17:54:01.920Z,13.16
2023-03-19T17:56:03.890Z,13.08
2023-03-19T17:58:06.812Z,12.99
2023-03-19T18:00:09.863Z,12.90
2023-03-19T18:02:32.177Z,12.82
2023-03-19T18:04:33.745Z,12.73
2023-03-19T18:06:40.045Z,12.65
2023-03-19T18:08:41.564Z,12.56
2023-03-19T18:10:43.602Z,12.49
2023-03-19T18:12:45.276Z,12.39
2023-03-19T18:14:46.761Z,12.33
2023-03-19T18:16:48.488Z,12.27
2023-03-19T18:18:51.543Z,12.20
2023-03-19T18:20:53.154Z,12.14
2023-03-19T18:22:54.713Z,12.04
2023-03-19T18:24:57.136Z,11.97
2023-03-19T18:26:58.580Z,11.91
2023-03-19T18:29:00.059Z,11.83
2023-03-19T18:31:01.742Z,11.77
2023-03-19T18:33:06.771Z,11.70
2023-03-19T18:35:17.985Z,11.62
2023-03-19T18:37:19.849Z,11.55
2023-03-19T18:39:21.385Z,11.48
2023-03-19T18:41:25.340Z,11.41
2023-03-19T18:43:26.889Z,11.33
2023-03-19T18:45:30.662Z,11.28
2023-03-19T18:47:32.317Z,11.21
2023-03-19T18:49:33.797Z,11.17
2023-03-19T18:51:35.424Z,11.11
2023-03-19T18:53:37.043Z,11.05
2023-03-19T18:55:38.610Z,11.01
2023-03-19T18:57:52.559Z,10.95
2023-03-19T18:59:54.903Z,10.89
2023-03-19T19:02:17.156Z,10.83
2023-03-19T19:04:18.717Z,10.74
2023-03-19T19:06:36.591Z,10.68
2023-03-19T19:08:47.549Z,10.61
2023-03-19T19:10:53.329Z,10.55
2023-03-19T19:12:56.199Z,10.51
2023-03-19T19:15:05.105Z,10.47
2023-03-19T19:17:10.080Z,10.41
2023-03-19T19:19:17.615Z,10.37
2023-03-19T19:21:19.433Z,10.33
2023-03-19T19:23:22.148Z,10.28
2023-03-19T19:25:28.789Z,10.21
2023-03-19T19:27:30.976Z,10.10
2023-03-19T19:29:32.548Z,10.04
2023-03-19T19:31:35.823Z,10.00
2023-03-19T19:33:37.495Z,9.91
2023-03-19T19:35:38.959Z,9.74
2023-03-19T19:37:40.639Z,9.72
2023-03-19T19:39:42.230Z,9.72
2023-03-19T19:41:43.873Z,9.71
2023-03-19T19:43:47.397Z,9.70
2023-03-19T19:45:51.433Z,9.68
2023-03-19T19:47:53.005Z,9.51
2023-03-19T19:49:54.472Z,9.36
2023-03-19T19:51:56.147Z,9.32
2023-03-19T19:53:57.612Z,9.35
2023-03-19T19:55:59.163Z,9.28
2023-03-19T19:58:01.661Z,9.29
2023-03-19T20:00:04.210Z,9.29
2023-03-19T20:02:21.600Z,9.30
2023-03-19T20:04:23.143Z,9.22
2023-03-19T20:06:24.688Z,9.22
2023-03-19T20:08:27.124Z,9.17
2023-03-19T20:10:30.709Z,9.08
2023-03-19T20:12:33.311Z,8.97
2023-03-19T20:14:34.798Z,8.94
2023-03-19T20:16:36.270Z,8.91
2023-03-19T20:18:43.323Z,8.89
2023-03-19T20:20:45.075Z,8.82
2023-03-19T20:22:47.591Z,8.80
2023-03-19T20:24:51.253Z,8.74
2023-03-19T20:26:53.160Z,8.73
2023-03-19T20:28:54.652Z,8.74
2023-03-19T20:30:56.441Z,8.71
2023-03-19T20:32:59.674Z,8.63
2023-03-19T20:35:01.478Z,8.62
2023-03-19T20:37:02.934Z,8.54
2023-03-19T20:39:04.612Z,8.50
2023-03-19T20:41:14.853Z,8.48
2023-03-19T20:43:29.823Z,8.52
2023-03-19T20:45:37.672Z,8.48
2023-03-19T20:47:39.130Z,8.38
2023-03-19T20:49:40.612Z,8.28
2023-03-19T20:51:42.072Z,8.27
2023-03-19T20:53:43.525Z,8.28
2023-03-19T20:55:46.993Z,8.33
2023-03-19T20:57:51.181Z,8.29
2023-03-19T20:59:52.759Z,8.26
2023-03-19T21:01:56.403Z,8.24
2023-03-19T21:03:57.914Z,8.25
2023-03-19T21:06:02.705Z,8.30
2023-03-19T21:08:06.118Z,8.28
2023-03-19T21:10:21.118Z,8.29
2023-03-19T21:12:33.345Z,8.29
2023-03-19T21:14:34.830Z,8.36
2023-03-19T21:16:36.536Z,8.38
2023-03-19T21:18:38.061Z,8.45
2023-03-19T21:20:42.525Z,8.45
2023-03-19T21:22:46.359Z,8.44
2023-03-19T21:24:48.964Z,8.46
2023-03-19T21:26:50.534Z,8.46
2023-03-19T21:28:55.052Z,8.49
2023-03-19T21:30:57.766Z,8.49
2023-03-19T21:32:59.584Z,8.51
2023-03-19T21:35:01.508Z,8.54
2023-03-19T21:37:03.196Z,8.58
2023-03-19T21:39:04.668Z,8.60
2023-03-19T21:41:24.755Z,8.65
2023-03-19T21:43:57.334Z,8.70
2023-03-19T21:45:58.962Z,8.73
2023-03-19T21:48:09.489Z,8.78
2023-03-19T21:50:17.381Z,8.81
2023-03-19T21:52:21.601Z,8.85
2023-03-19T21:54:23.869Z,8.86
2023-03-19T21:56:34.897Z,8.92
2023-03-19T21:58:36.689Z,8.93
2023-03-19T22:00:38.480Z,8.95
2023-03-19T22:02:42.682Z,8.96
2023-03-19T22:04:44.469Z,8.97
2023-03-19T22:06:46.781Z,8.99
2023-03-19T22:08:48.813Z,8.99
2023-03-19T22:10:58.521Z,9.01
2023-03-19T22:13:00.248Z,9.03
2023-03-19T22:15:02.583Z,9.03
2023-03-19T22:17:05.703Z,9.04
2023-03-19T22:19:07.158Z,9.04
2023-03-19T22:21:13.966Z,9.06
2023-03-19T22:23:16.032Z,9.07
2023-03-19T22:25:18.875Z,9.07
2023-03-19T22:27:20.360Z,9.05
2023-03-19T22:29:25.371Z,9.04
2023-03-19T22:31:27.244Z,9.03
2023-03-19T22:33:28.939Z,9.05
2023-03-19T22:35:30.471Z,9.07
2023-03-19T22:37:32.172Z,9.08
2023-03-19T22:39:33.625Z,9.09
2023-03-19T22:41:37.453Z,9.10
2023-03-19T22:43:38.960Z,9.12
2023-03-19T22:45:40.522Z,9.12
2023-03-19T22:47:42.117Z,9.14
2023-03-19T22:49:44.946Z,9.13
2023-03-19T22:51:47.297Z,9.15
2023-03-19T22:53:48.866Z,9.17
2023-03-19T22:55:50.560Z,9.18
2023-03-19T22:57:52.047Z,9.19
2023-03-19T22:59:53.496Z,9.19
2023-03-19T23:01:55.788Z,9.20
2023-03-19T23:03:57.600Z,9.24
2023-03-19T23:06:05.411Z,9.25
2023-03-19T23:08:06.870Z,9.23
2023-03-19T23:10:29.147Z,9.22
2023-03-19T23:12:30.856Z,9.22
2023-03-19T23:14:32.380Z,9.26
2023-03-19T23:16:33.985Z,9.26
2023-03-19T23:18:37.056Z,9.24
2023-03-19T23:20:38.528Z,9.26
2023-03-19T23:22:40.359Z,9.26
2023-03-19T23:24:42.292Z,9.28
2023-03-19T23:26:45.877Z,9.31
2023-03-19T23:28:47.407Z,9.33
2023-03-19T23:30:51.326Z,9.35
2023-03-19T23:32:53.217Z,9.38
2023-03-19T23:35:00.595Z,9.40
2023-03-19T23:37:02.826Z,9.42
2023-03-19T23:39:05.068Z,9.45
2023-03-19T23:41:17.807Z,9.48
2023-03-19T23:43:22.685Z,9.50
2023-03-19T23:45:39.941Z,9.54
2023-03-19T23:47:41.776Z,9.56
2023-03-19T23:49:43.293Z,9.57
2023-03-19T23:51:44.752Z,9.57
2023-03-19T23:53:46.849Z,9.59
2023-03-19T23:55:51.267Z,9.61
2023-03-19T23:57:53.340Z,9.61
2023-03-19T23:59:55.102Z,9.62
